Time;durP1;ratioP1;P1;durP2;ratioP2;P2;SDS_P1;SDS_P2;PMS_P1;PMS_P2;Temp;Humidity;BMP_temperature;BMP_pressure;BME280_temperature;BME280_humidity;BME280_pressure;Samples;Min_cycle;Max_cycle;Signal;HPM_P1;HPM_P2
2022/04/09 00:00:56;;;;;;;1.80;1.70;;;;;;;;;;5077662;28;20229;-66
2022/04/09 00:03:23;;;;;;;2.10;1.90;;;;;;;;;;5077861;28;20623;-66
2022/04/09 00:05:49;;;;;;;2.70;2.13;;;;;;;;;;5077870;28;20215;-66
2022/04/09 00:08:16;;;;;;;2.10;1.90;;;;;;;;;;5077893;28;20201;-66
2022/04/09 00:10:43;;;;;;;4.22;1.90;;;;;;;;;;5077175;28;20289;-66
2022/04/09 00:13:09;;;;;;;2.40;1.92;;;;;;;;;;5077658;28;20221;-66
2022/04/09 00:15:37;;;;;;;2.05;1.83;;;;;;;;;;5077530;28;20185;-66
2022/04/09 00:18:04;;;;;;;2.55;1.90;;;;;;;;;;5076750;28;20236;-66
2022/04/09 00:20:31;;;;;;;1.63;1.50;;;;;;;;;;5076481;28;20201;-66
2022/04/09 00:22:58;;;;;;;2.22;1.88;;;;;;;;;;5076910;28;20241;-66
2022/04/09 00:25:24;;;;;;;2.42;2.03;;;;;;;;;;5077590;28;20219;-66
2022/04/09 00:27:51;;;;;;;2.47;1.70;;;;;;;;;;5077168;28;20282;-66
2022/04/09 00:30:18;;;;;;;2.20;1.63;;;;;;;;;;5076554;28;20200;-66
2022/04/09 00:32:46;;;;;;;2.45;1.95;;;;;;;;;;5076860;28;20232;-66
2022/04/09 00:35:13;;;;;;;2.50;1.80;;;;;;;;;;5076961;28;20199;-66
2022/04/09 00:37:43;;;;;;;3.47;1.85;;;;;;;;;;5077018;28;20232;-66
2022/04/09 00:40:10;;;;;;;1.70;1.60;;;;;;;;;;5077039;28;20567;-67
2022/04/09 00:42:37;;;;;;;1.90;1.75;;;;;;;;;;5077274;28;20189;-67
2022/04/09 00:45:05;;;;;;;3.33;1.75;;;;;;;;;;5076557;28;20233;-67
2022/04/09 00:47:31;;;;;;;1.77;1.67;;;;;;;;;;5076949;28;20291;-67
2022/04/09 00:49:59;;;;;;;3.10;1.63;;;;;;;;;;5076729;28;20181;-67
2022/04/09 00:52:27;;;;;;;1.92;1.58;;;;;;;;;;5076321;28;20236;-67
2022/04/09 00:54:55;;;;;;;3.50;1.83;;;;;;;;;;5076190;28;20216;-67
2022/04/09 00:57:22;;;;;;;1.80;1.67;;;;;;;;;;5076169;28;20200;-67
2022/04/09 00:59:50;;;;;;;1.70;1.60;;;;;;;;;;5076908;28;20231;-67
2022/04/09 01:02:17;;;;;;;3.13;1.80;;;;;;;;;;5076111;28;20292;-67
2022/04/09 01:04:44;;;;;;;1.77;1.65;;;;;;;;;;5076621;28;20182;-67
2022/04/09 01:07:13;;;;;;;1.75;1.65;;;;;;;;;;5076664;28;20299;-67
2022/04/09 01:09:40;;;;;;;1.85;1.60;;;;;;;;;;5076352;28;20211;-67
2022/04/09 01:12:07;;;;;;;2.55;1.75;;;;;;;;;;5076754;28;20216;-67
2022/04/09 01:14:34;;;;;;;3.13;1.70;;;;;;;;;;5075604;28;20228;-67
2022/04/09 01:17:00;;;;;;;2.22;1.65;;;;;;;;;;5076428;28;20216;-67
2022/04/09 01:19:27;;;;;;;2.03;1.83;;;;;;;;;;5076514;28;20185;-67
2022/04/09 01:21:54;;;;;;;2.13;1.48;;;;;;;;;;5075807;28;20207;-67
2022/04/09 01:24:22;;;;;;;1.88;1.70;;;;;;;;;;5075703;28;20201;-67
2022/04/09 01:26:49;;;;;;;2.08;1.60;;;;;;;;;;5076256;28;20205;-67
2022/04/09 01:29:15;;;;;;;1.60;1.50;;;;;;;;;;5074181;28;20205;-67
2022/04/09 01:31:42;;;;;;;1.92;1.60;;;;;;;;;;5075368;28;20597;-67
2022/04/09 01:34:10;;;;;;;2.38;1.55;;;;;;;;;;5075392;28;20197;-67
2022/04/09 01:36:36;;;;;;;1.70;1.58;;;;;;;;;;5075535;28;20239;-67
2022/04/09 01:39:03;;;;;;;2.15;1.83;;;;;;;;;;5075213;28;20229;-67
2022/04/09 01:41:31;;;;;;;2.45;1.60;;;;;;;;;;5076129;28;20347;-67
2022/04/09 01:43:57;;;;;;;1.75;1.65;;;;;;;;;;5075049;28;20211;-67
2022/04/09 01:46:24;;;;;;;1.88;1.58;;;;;;;;;;5075526;28;20683;-67
2022/04/09 01:48:51;;;;;;;2.45;1.75;;;;;;;;;;5075626;28;20221;-67
2022/04/09 01:51:17;;;;;;;1.95;1.67;;;;;;;;;;5074861;28;20284;-67
2022/04/09 01:53:44;;;;;;;2.10;1.60;;;;;;;;;;5075469;28;20602;-67
2022/04/09 01:56:11;;;;;;;2.90;2.13;;;;;;;;;;5074954;28;20219;-67
2022/04/09 01:58:39;;;;;;;3.60;1.92;;;;;;;;;;5075805;28;20620;-67
2022/04/09 02:01:06;;;;;;;3.40;1.90;;;;;;;;;;5075750;28;20189;-67
2022/04/09 02:03:33;;;;;;;1.60;1.50;;;;;;;;;;5074818;28;20262;-67
2022/04/09 02:05:59;;;;;;;2.20;1.80;;;;;;;;;;5075250;28;20193;-67
2022/04/09 02:08:26;;;;;;;2.33;1.50;;;;;;;;;;5075042;28;20205;-67
2022/04/09 02:10:54;;;;;;;2.20;1.77;;;;;;;;;;5075712;28;20182;-66
2022/04/09 02:13:20;;;;;;;2.25;1.70;;;;;;;;;;5075196;28;20594;-66
2022/04/09 02:15:48;;;;;;;2.92;1.80;;;;;;;;;;5075562;28;20199;-67
2022/04/09 02:18:15;;;;;;;2.53;1.60;;;;;;;;;;5074614;28;20196;-67
2022/04/09 02:20:41;;;;;;;1.60;1.50;;;;;;;;;;5074240;28;20203;-67
2022/04/09 02:23:08;;;;;;;2.17;1.80;;;;;;;;;;5075455;28;20276;-67
2022/04/09 02:25:35;;;;;;;5.03;1.65;;;;;;;;;;5075223;28;20220;-67
2022/04/09 02:28:01;;;;;;;2.35;1.67;;;;;;;;;;5074503;28;20259;-67
2022/04/09 02:30:28;;;;;;;1.90;1.63;;;;;;;;;;5075257;28;20227;-67
2022/04/09 02:32:56;;;;;;;3.50;1.70;;;;;;;;;;5074455;28;20208;-67
2022/04/09 02:35:25;;;;;;;2.15;1.85;;;;;;;;;;5075371;28;20186;-67
2022/04/09 02:37:52;;;;;;;3.08;1.63;;;;;;;;;;5074045;28;20319;-67
2022/04/09 02:40:18;;;;;;;2.20;1.63;;;;;;;;;;5073637;28;20189;-67
2022/04/09 02:42:46;;;;;;;1.63;1.52;;;;;;;;;;5074360;28;20212;-67
2022/04/09 02:45:13;;;;;;;2.65;1.50;;;;;;;;;;5074686;28;20212;-67
2022/04/09 02:47:40;;;;;;;1.73;1.50;;;;;;;;;;5075330;28;20244;-67
2022/04/09 02:50:08;;;;;;;2.42;1.60;;;;;;;;;;5075147;28;20193;-67
2022/04/09 02:52:35;;;;;;;3.15;1.60;;;;;;;;;;5075054;28;20181;-67
2022/04/09 02:55:02;;;;;;;2.90;1.50;;;;;;;;;;5074783;28;20216;-67
2022/04/09 02:57:28;;;;;;;2.42;1.40;;;;;;;;;;5075063;28;20282;-66
2022/04/09 02:59:55;;;;;;;1.70;1.60;;;;;;;;;;5075095;28;20189;-66
2022/04/09 03:02:21;;;;;;;2.08;1.33;;;;;;;;;;5074822;28;20267;-66
2022/04/09 03:04:48;;;;;;;1.85;1.50;;;;;;;;;;5074686;28;20602;-67
2022/04/09 03:07:16;;;;;;;1.75;1.63;;;;;;;;;;5073982;28;20212;-67
2022/04/09 03:09:43;;;;;;;2.13;1.73;;;;;;;;;;5073707;28;20602;-67
2022/04/09 03:12:09;;;;;;;2.65;1.73;;;;;;;;;;5074516;28;20601;-67
2022/04/09 03:14:36;;;;;;;2.85;1.60;;;;;;;;;;5075109;28;20182;-67
2022/04/09 03:17:02;;;;;;;2.25;1.70;;;;;;;;;;5074081;28;20207;-67
2022/04/09 03:19:29;;;;;;;3.33;1.88;;;;;;;;;;5073861;28;20235;-67
2022/04/09 03:21:55;;;;;;;2.75;1.98;;;;;;;;;;5074050;28;20239;-67
2022/04/09 03:24:24;;;;;;;3.50;1.90;;;;;;;;;;5074045;28;20194;-67
2022/04/09 03:26:50;;;;;;;1.63;1.50;;;;;;;;;;5074670;28;20190;-67
2022/04/09 03:29:17;;;;;;;2.60;1.65;;;;;;;;;;5074686;28;20263;-67
2022/04/09 03:31:43;;;;;;;1.90;1.75;;;;;;;;;;5074485;28;20205;-67
2022/04/09 03:34:10;;;;;;;3.33;1.73;;;;;;;;;;5074771;28;20186;-67
2022/04/09 03:36:38;;;;;;;3.58;1.75;;;;;;;;;;5074417;28;20316;-67
2022/04/09 03:39:04;;;;;;;2.30;1.60;;;;;;;;;;5073745;28;20185;-66
2022/04/09 03:41:32;;;;;;;2.78;1.52;;;;;;;;;;5073804;28;20201;-66
2022/04/09 03:43:59;;;;;;;3.00;2.10;;;;;;;;;;5074321;28;20200;-66
2022/04/09 03:46:25;;;;;;;4.28;2.28;;;;;;;;;;5074597;28;20564;-66
2022/04/09 03:48:52;;;;;;;3.65;2.20;;;;;;;;;;5074523;28;20219;-66
2022/04/09 03:51:19;;;;;;;6.10;3.92;;;;;;;;;;5074991;28;20187;-66
2022/04/09 03:53:45;;;;;;;4.47;3.05;;;;;;;;;;5076944;28;20201;-67
2022/04/09 03:56:12;;;;;;;3.95;2.75;;;;;;;;;;5077759;28;20643;-67
2022/04/09 03:58:40;;;;;;;3.28;2.47;;;;;;;;;;5078305;28;20204;-67
2022/04/09 04:01:06;;;;;;;5.85;2.85;;;;;;;;;;5077674;28;20625;-67
2022/04/09 04:03:34;;;;;;;3.28;2.70;;;;;;;;;;5077911;28;20221;-67
2022/04/09 04:06:01;;;;;;;3.47;2.47;;;;;;;;;;5077522;28;20201;-68
2022/04/09 04:08:28;;;;;;;3.03;2.72;;;;;;;;;;5077805;28;20245;-68
2022/04/09 04:10:54;;;;;;;3.83;2.88;;;;;;;;;;5076627;28;20190;-69
2022/04/09 04:13:21;;;;;;;4.07;2.75;;;;;;;;;;5077750;28;20185;-69
2022/04/09 04:15:50;;;;;;;3.05;2.60;;;;;;;;;;5076822;28;20243;-69
2022/04/09 04:18:17;;;;;;;6.03;3.20;;;;;;;;;;5077457;28;20193;-69
2022/04/09 04:20:43;;;;;;;3.63;2.85;;;;;;;;;;5076749;28;20201;-69
2022/04/09 04:23:10;;;;;;;3.85;2.80;;;;;;;;;;5077631;28;20231;-69
2022/04/09 04:25:37;;;;;;;2.75;2.53;;;;;;;;;;5076634;28;20197;-69
2022/04/09 04:28:03;;;;;;;4.78;3.20;;;;;;;;;;5077249;28;20201;-69
2022/04/09 04:30:30;;;;;;;3.45;2.75;;;;;;;;;;5077223;28;20220;-69
2022/04/09 04:32:58;;;;;;;3.20;2.83;;;;;;;;;;5077411;28;20196;-69
2022/04/09 04:35:25;;;;;;;5.53;3.20;;;;;;;;;;5076545;28;20231;-69
2022/04/09 04:37:54;;;;;;;3.38;3.00;;;;;;;;;;5076238;28;20229;-68
2022/04/09 04:40:20;;;;;;;4.72;3.42;;;;;;;;;;5076328;28;20200;-68
2022/04/09 04:42:49;;;;;;;5.53;3.42;;;;;;;;;;5076926;28;20227;-68
2022/04/09 04:45:15;;;;;;;4.82;2.88;;;;;;;;;;5076217;28;20246;-68
2022/04/09 04:47:45;;;;;;;7.63;3.22;;;;;;;;;;5077047;28;20270;-68
2022/04/09 04:50:14;;;;;;;2.80;2.50;;;;;;;;;;5077132;28;20182;-69
2022/04/09 04:52:40;;;;;;;3.42;2.80;;;;;;;;;;5076999;28;20189;-69
2022/04/09 04:55:07;;;;;;;4.43;2.90;;;;;;;;;;5076034;28;20201;-68
2022/04/09 04:57:40;;;;;;;4.07;2.88;;;;;;;;;;5076975;28;20503;-67
2022/04/09 05:00:08;;;;;;;3.63;2.97;;;;;;;;;;5075941;28;20592;-67
2022/04/09 05:02:35;;;;;;;4.03;2.67;;;;;;;;;;5076401;28;20178;-67
2022/04/09 05:05:01;;;;;;;5.85;2.90;;;;;;;;;;5075887;28;20201;-67
2022/04/09 05:07:38;;;;;;;3.22;2.92;;;;;;;;;;5076667;28;20201;-67
2022/04/09 05:10:05;;;;;;;3.67;3.38;;;;;;;;;;5075955;28;20205;-67
2022/04/09 05:12:33;;;;;;;3.17;2.75;;;;;;;;;;5075732;28;20231;-67
2022/04/09 05:14:59;;;;;;;3.63;2.70;;;;;;;;;;5076631;28;20186;-67
2022/04/09 05:17:26;;;;;;;4.03;3.20;;;;;;;;;;5076193;28;20235;-67
2022/04/09 05:19:52;;;;;;;4.22;3.13;;;;;;;;;;5076214;28;20185;-67
2022/04/09 05:22:19;;;;;;;3.65;3.15;;;;;;;;;;5075721;28;20692;-67
2022/04/09 05:24:47;;;;;;;4.03;3.05;;;;;;;;;;5075813;28;20205;-67
2022/04/09 05:27:15;;;;;;;4.30;3.10;;;;;;;;;;5074992;28;20243;-67
2022/04/09 05:29:41;;;;;;;3.88;3.03;;;;;;;;;;5076215;28;20243;-67
2022/04/09 05:32:08;;;;;;;4.68;3.00;;;;;;;;;;5075768;28;20220;-67
2022/04/09 05:34:35;;;;;;;4.57;3.75;;;;;;;;;;5075850;28;20185;-67
2022/04/09 05:37:01;;;;;;;4.90;3.50;;;;;;;;;;5075725;28;20267;-67
2022/04/09 05:39:28;;;;;;;4.22;2.90;;;;;;;;;;5074855;28;20232;-67
2022/04/09 05:41:56;;;;;;;3.40;2.60;;;;;;;;;;5075865;28;20232;-66
2022/04/09 05:44:23;;;;;;;4.13;2.78;;;;;;;;;;5076100;28;20193;-68
2022/04/09 05:46:49;;;;;;;4.05;2.80;;;;;;;;;;5075759;28;20178;-68
2022/04/09 05:49:16;;;;;;;3.30;3.00;;;;;;;;;;5074919;28;20217;-68
2022/04/09 05:51:42;;;;;;;4.47;2.85;;;;;;;;;;5075148;28;20220;-68
2022/04/09 05:54:09;;;;;;;4.80;3.78;;;;;;;;;;5075894;28;20220;-68
2022/04/09 05:56:36;;;;;;;8.98;5.22;;;;;;;;;;5075073;28;20207;-68
2022/04/09 05:59:04;;;;;;;8.40;7.18;;;;;;;;;;5075960;28;20192;-68
2022/04/09 06:01:31;;;;;;;11.73;7.60;;;;;;;;;;5074527;28;20199;-68
2022/04/09 06:03:58;;;;;;;5.97;4.45;;;;;;;;;;5075868;28;20207;-68
2022/04/09 06:06:24;;;;;;;6.32;4.15;;;;;;;;;;5074597;28;20523;-68
2022/04/09 06:08:52;;;;;;;5.78;3.58;;;;;;;;;;5075220;28;20616;-67
2022/04/09 06:11:19;;;;;;;8.52;3.15;;;;;;;;;;5074686;28;20208;-67
2022/04/09 06:13:45;;;;;;;5.63;3.28;;;;;;;;;;5075202;28;20192;-67
2022/04/09 06:16:14;;;;;;;5.25;3.67;;;;;;;;;;5074827;28;20616;-67
2022/04/09 06:18:41;;;;;;;4.72;3.13;;;;;;;;;;5074529;28;20270;-67
2022/04/09 06:21:08;;;;;;;4.43;3.47;;;;;;;;;;5074626;28;20219;-67
2022/04/09 06:23:34;;;;;;;5.72;3.40;;;;;;;;;;5074197;28;20299;-67
2022/04/09 06:26:01;;;;;;;5.28;3.40;;;;;;;;;;5075485;28;20280;-68
2022/04/09 06:28:28;;;;;;;5.03;3.55;;;;;;;;;;5074036;28;20217;-68
2022/04/09 06:30:54;;;;;;;6.70;3.85;;;;;;;;;;5074383;28;20223;-68
2022/04/09 06:33:23;;;;;;;5.90;3.40;;;;;;;;;;5074467;28;20201;-68
2022/04/09 06:35:49;;;;;;;8.00;3.42;;;;;;;;;;5074921;28;20231;-67
2022/04/09 06:38:16;;;;;;;5.15;3.10;;;;;;;;;;5075034;28;20181;-67
2022/04/09 06:40:42;;;;;;;4.72;2.97;;;;;;;;;;5075187;28;20189;-67
2022/04/09 06:43:09;;;;;;;4.72;3.20;;;;;;;;;;5075132;28;20258;-67
2022/04/09 06:45:35;;;;;;;7.10;2.95;;;;;;;;;;5074023;28;20676;-68
2022/04/09 06:48:02;;;;;;;4.93;3.30;;;;;;;;;;5074768;28;20283;-68
2022/04/09 06:50:30;;;;;;;4.63;3.22;;;;;;;;;;5074245;28;20201;-68
2022/04/09 06:52:57;;;;;;;5.30;3.25;;;;;;;;;;5074427;28;20619;-68
2022/04/09 06:55:23;;;;;;;6.97;3.78;;;;;;;;;;5074168;28;20200;-67
2022/04/09 06:57:50;;;;;;;4.60;3.55;;;;;;;;;;5075162;28;20215;-67
2022/04/09 07:00:17;;;;;;;5.72;3.65;;;;;;;;;;5074510;28;20197;-67
2022/04/09 07:02:43;;;;;;;8.95;3.33;;;;;;;;;;5074142;28;20197;-67
2022/04/09 07:05:10;;;;;;;5.15;3.58;;;;;;;;;;5075054;28;20659;-67
2022/04/09 07:07:38;;;;;;;6.68;3.28;;;;;;;;;;5074788;28;20204;-67
2022/04/09 07:10:06;;;;;;;6.00;3.42;;;;;;;;;;5073968;28;20226;-67
2022/04/09 07:12:32;;;;;;;4.80;3.00;;;;;;;;;;5074334;28;20204;-67
2022/04/09 07:14:59;;;;;;;6.70;3.47;;;;;;;;;;5074667;28;20173;-67
2022/04/09 07:17:26;;;;;;;6.15;3.20;;;;;;;;;;5074105;28;20588;-67
2022/04/09 07:19:53;;;;;;;5.28;3.40;;;;;;;;;;5074104;28;20204;-67
2022/04/09 07:22:20;;;;;;;5.03;3.55;;;;;;;;;;5074412;28;20235;-67
2022/04/09 07:24:48;;;;;;;3.72;2.90;;;;;;;;;;5074964;28;20177;-67
2022/04/09 07:27:14;;;;;;;6.80;3.72;;;;;;;;;;5076019;28;20269;-67
2022/04/09 07:29:41;;;;;;;3.38;2.58;;;;;;;;;;5078356;28;20216;-67
2022/04/09 07:32:08;;;;;;;5.05;3.40;;;;;;;;;;5078253;28;20193;-67
2022/04/09 07:34:35;;;;;;;3.03;2.58;;;;;;;;;;5078611;28;20258;-67
2022/04/09 07:37:03;;;;;;;4.40;2.35;;;;;;;;;;5077762;28;20260;-67
2022/04/09 07:39:30;;;;;;;3.45;1.83;;;;;;;;;;5078321;28;20189;-67
2022/04/09 07:41:58;;;;;;;2.33;2.00;;;;;;;;;;5078177;28;20203;-67
2022/04/09 07:44:24;;;;;;;3.10;1.60;;;;;;;;;;5078014;28;20295;-67
2022/04/09 07:46:51;;;;;;;5.00;2.05;;;;;;;;;;5078431;28;20242;-67
2022/04/09 07:49:17;;;;;;;2.40;1.60;;;;;;;;;;5078075;28;20206;-67
2022/04/09 07:51:44;;;;;;;3.88;1.77;;;;;;;;;;5077365;28;20196;-67
2022/04/09 07:54:11;;;;;;;5.68;1.60;;;;;;;;;;5078177;28;20203;-67
2022/04/09 07:56:37;;;;;;;3.97;2.85;;;;;;;;;;5078190;28;20201;-67
2022/04/09 07:59:06;;;;;;;2.88;1.98;;;;;;;;;;5078430;28;20689;-67
2022/04/09 08:01:32;;;;;;;2.38;1.65;;;;;;;;;;5078102;28;20217;-67
2022/04/09 08:03:59;;;;;;;2.85;1.63;;;;;;;;;;5077676;28;20205;-67
2022/04/09 08:06:26;;;;;;;4.43;2.17;;;;;;;;;;5077353;28;20227;-67
2022/04/09 08:08:52;;;;;;;5.18;2.20;;;;;;;;;;5078251;28;20219;-67
2022/04/09 08:11:19;;;;;;;2.20;1.50;;;;;;;;;;5077137;28;20197;-67
2022/04/09 08:13:45;;;;;;;2.13;1.90;;;;;;;;;;5077600;28;20193;-67
2022/04/09 08:16:13;;;;;;;2.55;2.05;;;;;;;;;;5077143;28;20288;-67
2022/04/09 08:18:41;;;;;;;6.03;2.35;;;;;;;;;;5077745;28;20182;-67
2022/04/09 08:21:08;;;;;;;4.53;2.25;;;;;;;;;;5077620;28;20235;-67
2022/04/09 08:23:34;;;;;;;2.55;1.92;;;;;;;;;;5077663;28;20200;-67
2022/04/09 08:26:02;;;;;;;2.42;1.77;;;;;;;;;;5077720;28;20220;-68
2022/04/09 08:28:31;;;;;;;2.35;1.75;;;;;;;;;;5077560;28;20205;-70
2022/04/09 08:30:57;;;;;;;3.17;2.05;;;;;;;;;;5076751;28;20203;-68
2022/04/09 08:33:26;;;;;;;2.42;1.83;;;;;;;;;;5077007;28;20621;-68
2022/04/09 08:35:53;;;;;;;2.83;1.83;;;;;;;;;;5076358;28;20264;-68
2022/04/09 08:38:20;;;;;;;2.58;1.60;;;;;;;;;;5076722;28;20181;-68
2022/04/09 08:40:46;;;;;;;2.85;1.58;;;;;;;;;;5076171;28;20200;-68
2022/04/09 08:43:13;;;;;;;3.20;1.73;;;;;;;;;;5076401;28;20291;-68
2022/04/09 08:45:40;;;;;;;3.03;1.63;;;;;;;;;;5076786;28;20196;-68
2022/04/09 08:48:08;;;;;;;2.60;1.50;;;;;;;;;;5076598;28;20193;-68
2022/04/09 08:50:36;;;;;;;1.73;1.33;;;;;;;;;;5076520;28;20239;-68
2022/04/09 08:53:06;;;;;;;1.67;1.38;;;;;;;;;;5077177;28;20250;-68
2022/04/09 08:55:33;;;;;;;3.95;1.60;;;;;;;;;;5077091;28;20181;-68
2022/04/09 08:58:00;;;;;;;2.75;1.55;;;;;;;;;;5076995;28;20237;-68
2022/04/09 09:00:27;;;;;;;2.88;1.63;;;;;;;;;;5076848;28;20227;-68
2022/04/09 09:02:54;;;;;;;3.28;1.50;;;;;;;;;;5076073;28;20189;-68
2022/04/09 09:05:31;;;;;;;2.70;1.60;;;;;;;;;;5075868;28;20200;-68
2022/04/09 09:07:59;;;;;;;3.28;1.50;;;;;;;;;;5076913;28;20185;-68
2022/04/09 09:10:26;;;;;;;2.50;1.75;;;;;;;;;;5076087;28;20217;-68
2022/04/09 09:12:59;;;;;;;2.05;1.70;;;;;;;;;;5075789;28;20212;-68
2022/04/09 09:15:26;;;;;;;3.03;1.60;;;;;;;;;;5076301;28;20189;-68
2022/04/09 09:17:55;;;;;;;2.28;1.73;;;;;;;;;;5076214;28;20267;-68
2022/04/09 09:20:23;;;;;;;2.03;1.60;;;;;;;;;;5076403;28;20200;-68
2022/04/09 09:22:49;;;;;;;3.15;1.90;;;;;;;;;;5075754;28;20666;-68
2022/04/09 09:25:18;;;;;;;2.47;1.70;;;;;;;;;;5075122;28;20201;-68
2022/04/09 09:27:44;;;;;;;1.65;1.52;;;;;;;;;;5076334;28;20197;-68
2022/04/09 09:30:13;;;;;;;3.00;1.40;;;;;;;;;;5075559;28;20225;-68
2022/04/09 09:32:41;;;;;;;2.97;1.73;;;;;;;;;;5076445;28;20189;-68
2022/04/09 09:35:09;;;;;;;1.77;1.40;;;;;;;;;;5076123;28;20193;-68
2022/04/09 09:37:37;;;;;;;2.20;1.50;;;;;;;;;;5076298;28;20237;-68
2022/04/09 09:40:05;;;;;;;1.45;1.35;;;;;;;;;;5076011;28;20197;-68
2022/04/09 09:42:35;;;;;;;3.42;1.85;;;;;;;;;;5075976;28;20232;-68
2022/04/09 09:45:04;;;;;;;3.70;1.75;;;;;;;;;;5075761;28;20193;-68
2022/04/09 09:47:30;;;;;;;2.78;1.70;;;;;;;;;;5076458;28;20189;-68
2022/04/09 09:49:58;;;;;;;3.38;1.65;;;;;;;;;;5074309;28;20216;-68
2022/04/09 09:52:25;;;;;;;2.50;1.45;;;;;;;;;;5076019;28;20288;-68
2022/04/09 09:54:55;;;;;;;2.08;1.67;;;;;;;;;;5075878;28;20189;-68
2022/04/09 09:57:22;;;;;;;2.28;1.50;;;;;;;;;;5075718;28;20204;-68
2022/04/09 09:59:51;;;;;;;2.47;1.50;;;;;;;;;;5074619;28;20225;-68
2022/04/09 10:02:20;;;;;;;3.22;1.50;;;;;;;;;;5075409;28;20223;-68
2022/04/09 10:04:47;;;;;;;3.42;1.67;;;;;;;;;;5075672;28;20311;-68
2022/04/09 10:07:14;;;;;;;2.80;1.90;;;;;;;;;;5074378;28;20552;-68
2022/04/09 10:09:41;;;;;;;3.25;1.75;;;;;;;;;;5075254;28;20223;-72
2022/04/09 10:12:12;;;;;;;2.55;1.90;;;;;;;;;;5075724;28;20208;-72
2022/04/09 10:14:40;;;;;;;2.90;1.52;;;;;;;;;;5074511;28;20243;-72
2022/04/09 10:17:09;;;;;;;2.45;1.50;;;;;;;;;;5075524;28;20189;-72
2022/04/09 10:19:38;;;;;;;1.80;1.27;;;;;;;;;;5075473;28;20533;-73
2022/04/09 10:22:05;;;;;;;3.53;1.98;;;;;;;;;;5075414;28;20276;-73
2022/04/09 10:24:32;;;;;;;4.05;1.60;;;;;;;;;;5074687;28;20615;-73
2022/04/09 10:27:02;;;;;;;2.15;1.30;;;;;;;;;;5075531;28;20200;-73
2022/04/09 10:29:47;;;;;;;3.17;1.70;;;;;;;;;;5075380;28;20206;-73
2022/04/09 10:32:35;;;;;;;2.78;1.50;;;;;;;;;;5074429;28;20193;-73
2022/04/09 10:35:01;;;;;;;1.83;1.50;;;;;;;;;;5074994;28;20644;-73
2022/04/09 10:37:28;;;;;;;1.85;1.42;;;;;;;;;;5074769;28;20324;-72
2022/04/09 10:39:55;;;;;;;2.58;1.52;;;;;;;;;;5075272;28;20276;-72
2022/04/09 10:42:40;;;;;;;1.50;1.40;;;;;;;;;;5074617;28;20247;-73
2022/04/09 10:45:07;;;;;;;5.75;1.50;;;;;;;;;;5074396;28;20201;-73
2022/04/09 10:47:55;;;;;;;2.95;1.67;;;;;;;;;;5073990;28;20229;-73
2022/04/09 10:50:22;;;;;;;2.15;1.40;;;;;;;;;;5074160;28;20237;-73
2022/04/09 10:52:48;;;;;;;3.47;1.73;;;;;;;;;;5073943;28;20258;-72
2022/04/09 10:55:24;;;;;;;2.50;1.73;;;;;;;;;;5074220;28;20226;-72
2022/04/09 10:57:53;;;;;;;3.00;1.67;;;;;;;;;;5074887;28;20206;-72
2022/04/09 11:00:34;;;;;;;1.73;1.50;;;;;;;;;;5075672;28;20182;-73
2022/04/09 11:03:14;;;;;;;1.83;1.60;;;;;;;;;;5078453;28;20287;-73
2022/04/09 11:05:42;;;;;;;2.20;1.52;;;;;;;;;;5079015;28;20200;-73
2022/04/09 11:08:10;;;;;;;1.90;1.42;;;;;;;;;;5078206;28;20205;-73
2022/04/09 11:10:37;;;;;;;3.10;1.42;;;;;;;;;;5079021;28;20292;-73
2022/04/09 11:13:10;;;;;;;2.42;1.30;;;;;;;;;;5078703;28;20189;-73
2022/04/09 11:15:37;;;;;;;2.22;1.50;;;;;;;;;;5078689;28;20189;-73
2022/04/09 11:18:03;;;;;;;3.00;1.50;;;;;;;;;;5077554;28;20632;-73
2022/04/09 11:20:33;;;;;;;2.83;1.45;;;;;;;;;;5078824;28;20282;-73
2022/04/09 11:23:08;;;;;;;1.80;1.38;;;;;;;;;;5077631;28;20196;-73
2022/04/09 11:25:34;;;;;;;2.17;1.70;;;;;;;;;;5077460;28;20609;-73
2022/04/09 11:28:05;;;;;;;1.77;1.50;;;;;;;;;;5077906;28;20195;-73
2022/04/09 11:30:32;;;;;;;3.17;2.03;;;;;;;;;;5078768;28;20288;-73
2022/04/09 12:11:28;;;;;;;1.65;1.50;;;;;;;;;;5014205;28;20264;-69
2022/04/09 12:16:24;;;;;;;3.85;1.80;;;;;;;;;;5015804;28;20223;-68
2022/04/09 12:18:51;;;;;;;2.40;1.30;;;;;;;;;;5015436;28;20236;-69
2022/04/09 12:21:19;;;;;;;1.40;1.23;;;;;;;;;;5023226;28;20195;-68
2022/04/09 12:23:46;;;;;;;2.25;1.52;;;;;;;;;;5015609;28;20218;-68
2022/04/09 12:26:22;;;;;;;3.40;1.50;;;;;;;;;;5017967;28;20187;-69
2022/04/09 12:29:05;;;;;;;1.75;1.35;;;;;;;;;;5017999;28;20255;-68
2022/04/09 12:31:32;;;;;;;2.58;1.90;;;;;;;;;;5017736;28;20656;-68
2022/04/09 12:33:59;;;;;;;3.08;1.50;;;;;;;;;;5016906;28;20298;-68
2022/04/09 12:36:25;;;;;;;2.92;1.92;;;;;;;;;;5017706;28;20209;-68
2022/04/09 12:38:52;;;;;;;3.33;1.67;;;;;;;;;;5017439;28;20190;-68
2022/04/09 12:41:19;;;;;;;2.42;1.42;;;;;;;;;;5017446;28;20183;-68
2022/04/09 12:43:47;;;;;;;1.83;1.55;;;;;;;;;;5017861;28;20187;-69
2022/04/09 12:46:16;;;;;;;1.90;1.30;;;;;;;;;;5017503;28;20298;-69
2022/04/09 12:48:43;;;;;;;2.30;1.80;;;;;;;;;;5016685;28;20198;-68
2022/04/09 12:51:10;;;;;;;1.75;1.60;;;;;;;;;;5017440;28;20214;-68
2022/04/09 12:53:37;;;;;;;2.92;1.58;;;;;;;;;;5018073;28;20207;-68
2022/04/09 12:56:07;;;;;;;3.05;1.65;;;;;;;;;;5017548;28;20215;-68
2022/04/09 12:58:34;;;;;;;2.00;1.65;;;;;;;;;;5017340;28;20191;-68
2022/04/09 13:01:01;;;;;;;2.15;1.45;;;;;;;;;;5017444;28;20180;-71
2022/04/09 13:27:29;;;;;;;2.38;1.67;;;;;;;;;;5016424;28;20163;-72
2022/04/09 13:29:56;;;;;;;3.00;1.45;;;;;;;;;;5016602;28;20211;-71
2022/04/09 13:32:25;;;;;;;1.60;1.35;;;;;;;;;;5016656;28;20195;-71
2022/04/09 13:34:52;;;;;;;3.15;1.70;;;;;;;;;;5016381;28;20187;-71
2022/04/09 13:37:20;;;;;;;2.13;1.20;;;;;;;;;;5016333;28;20183;-72
2022/04/09 13:39:47;;;;;;;2.10;1.70;;;;;;;;;;5016288;28;20261;-72
2022/04/09 13:42:13;;;;;;;3.10;1.58;;;;;;;;;;5016524;28;20188;-73
2022/04/09 13:44:43;;;;;;;2.65;1.90;;;;;;;;;;5016338;28;20187;-72
2022/04/09 13:47:12;;;;;;;2.65;1.77;;;;;;;;;;5015465;28;20195;-71
2022/04/09 13:49:39;;;;;;;2.85;1.48;;;;;;;;;;5015670;28;20566;-71
2022/04/09 13:52:07;;;;;;;2.92;1.70;;;;;;;;;;5016399;28;20238;-71
2022/04/09 13:54:33;;;;;;;3.40;1.75;;;;;;;;;;5016032;28;20187;-71
2022/04/09 13:57:00;;;;;;;2.90;1.50;;;;;;;;;;5015442;28;20249;-71
2022/04/09 13:59:27;;;;;;;2.20;1.60;;;;;;;;;;5015369;28;20253;-71
2022/04/09 14:01:56;;;;;;;2.83;1.60;;;;;;;;;;5015599;28;20199;-71
2022/04/09 14:04:25;;;;;;;4.38;1.63;;;;;;;;;;5031725;28;20649;-71
2022/04/09 14:07:17;;;;;;;2.40;1.50;;;;;;;;;;5006323;28;20301;-71
2022/04/09 14:09:45;;;;;;;2.17;1.50;;;;;;;;;;5031490;28;20199;-71
2022/04/09 14:12:15;;;;;;;2.90;1.60;;;;;;;;;;5016181;28;20206;-71
2022/04/09 14:14:42;;;;;;;3.03;1.70;;;;;;;;;;5016202;28;20603;-73
2022/04/09 15:29:01;;;;;;;2.47;1.90;;;;;;;;;;4976180;28;20577;-63
2022/04/09 15:31:28;;;;;;;2.25;1.70;;;;;;;;;;4976081;28;20212;-63
2022/04/09 15:33:54;;;;;;;2.38;1.83;;;;;;;;;;4976124;28;20216;-63
2022/04/09 15:36:21;;;;;;;3.30;1.80;;;;;;;;;;4976026;28;20287;-63
2022/04/09 15:38:48;;;;;;;3.72;1.65;;;;;;;;;;4974908;28;20207;-63
2022/04/09 15:41:16;;;;;;;3.92;2.17;;;;;;;;;;4976081;28;20223;-63
2022/04/09 15:43:43;;;;;;;2.55;2.00;;;;;;;;;;4975220;28;20272;-63
2022/04/09 15:46:10;;;;;;;2.65;1.70;;;;;;;;;;4976154;28;20276;-63
2022/04/09 15:48:37;;;;;;;3.78;1.65;;;;;;;;;;4993393;28;20569;-63
2022/04/09 15:51:04;;;;;;;2.70;2.00;;;;;;;;;;4978661;28;20220;-62
2022/04/09 15:53:32;;;;;;;2.95;2.00;;;;;;;;;;4979481;28;20670;-62
2022/04/09 15:55:59;;;;;;;3.70;2.10;;;;;;;;;;4962446;28;20200;-62
2022/04/09 15:58:27;;;;;;;3.08;1.88;;;;;;;;;;4994677;28;20201;-63
2022/04/09 16:00:54;;;;;;;2.28;1.83;;;;;;;;;;4979076;28;20577;-63
2022/04/09 16:03:21;;;;;;;3.20;1.75;;;;;;;;;;4979282;28;20204;-62
2022/04/09 16:05:48;;;;;;;3.92;2.63;;;;;;;;;;4962447;28;20242;-62
2022/04/09 16:08:15;;;;;;;3.50;2.00;;;;;;;;;;4978425;28;20259;-64
2022/04/09 16:10:42;;;;;;;2.95;1.90;;;;;;;;;;4962203;28;20584;-62
2022/04/09 16:13:08;;;;;;;3.05;1.90;;;;;;;;;;4979082;28;20220;-64
2022/04/09 16:15:40;;;;;;;2.92;1.90;;;;;;;;;;4994370;28;20240;-63
2022/04/09 16:18:07;;;;;;;5.80;2.22;;;;;;;;;;4978743;28;20205;-64
2022/04/09 16:20:33;;;;;;;3.50;2.28;;;;;;;;;;4978654;28;20196;-63
2022/04/09 16:23:25;;;;;;;4.50;2.60;;;;;;;;;;4974395;28;20228;-63
2022/04/09 16:25:52;;;;;;;3.63;2.13;;;;;;;;;;4978764;28;20239;-62
2022/04/09 16:28:18;;;;;;;4.82;1.90;;;;;;;;;;4978596;28;20259;-62
2022/04/09 16:30:46;;;;;;;2.53;2.17;;;;;;;;;;4961235;28;20666;-62
2022/04/09 16:33:13;;;;;;;2.88;2.10;;;;;;;;;;4994219;28;20200;-63
2022/04/09 16:35:40;;;;;;;5.32;2.55;;;;;;;;;;4978873;28;20197;-62
2022/04/09 16:38:07;;;;;;;3.08;1.90;;;;;;;;;;4977786;28;20211;-62
2022/04/09 16:40:34;;;;;;;4.78;2.30;;;;;;;;;;4961651;28;20232;-62
2022/04/09 16:43:00;;;;;;;3.15;2.20;;;;;;;;;;4978551;28;20647;-62
2022/04/09 16:45:27;;;;;;;3.92;2.60;;;;;;;;;;4993559;28;20227;-63
2022/04/09 16:50:48;;;;;;;2.88;2.58;;;;;;;;;;4996531;28;20222;-62
2022/04/09 16:53:16;;;;;;;2.92;2.63;;;;;;;;;;4989813;28;20232;-62
2022/04/09 16:58:02;;;;;;;5.40;3.15;;;;;;;;;;4977627;27;85307;-62
2022/04/09 17:02:24;;;;;;;5.50;3.30;;;;;;;20.29;23.71;93638.81;4946995;27;5080274;-64
2022/04/09 17:04:52;;;;;;;4.15;3.28;;;;;;;20.19;23.69;93639.97;5065353;28;20571;-64
2022/04/09 17:07:23;;;;;;;5.43;3.55;;;;;;;20.10;24.22;93646.22;5107300;28;20247;-64